sensor_id;sensor_type;location;lat;lon;timestamp;P1;durP1;ratioP1;P2;durP2;ratioP2
71095;SDS011;58753;49.440;11.126;2022-07-24T00:01:14;7.70;;;5.13;;
71095;SDS011;58753;49.440;11.126;2022-07-24T00:03:39;6.37;;;5.13;;
71095;SDS011;58753;49.440;11.126;2022-07-24T00:06:05;8.90;;;5.20;;
71095;SDS011;58753;49.440;11.126;2022-07-24T00:10:55;7.75;;;5.00;;
71095;SDS011;58753;49.440;11.126;2022-07-24T00:13:21;9.77;;;5.53;;
71095;SDS011;58753;49.440;11.126;2022-07-24T00:15:46;9.37;;;5.57;;
71095;SDS011;58753;49.440;11.126;2022-07-24T00:18:12;8.85;;;5.78;;
71095;SDS011;58753;49.440;11.126;2022-07-24T00:20:37;9.30;;;6.20;;
71095;SDS011;58753;49.440;11.126;2022-07-24T00:23:03;8.13;;;5.70;;
71095;SDS011;58753;49.440;11.126;2022-07-24T00:37:50;8.43;;;5.35;;
71095;SDS011;58753;49.440;11.126;2022-07-24T00:40:15;9.33;;;5.90;;
71095;SDS011;58753;49.440;11.126;2022-07-24T00:42:41;9.23;;;5.72;;
71095;SDS011;58753;49.440;11.126;2022-07-24T00:52:55;10.25;;;5.47;;
71095;SDS011;58753;49.440;11.126;2022-07-24T00:55:21;9.88;;;5.75;;
71095;SDS011;58753;49.440;11.126;2022-07-24T00:57:47;11.10;;;6.13;;
71095;SDS011;58753;49.440;11.126;2022-07-24T01:08:03;8.33;;;5.83;;
71095;SDS011;58753;49.440;11.126;2022-07-24T01:10:28;11.10;;;6.00;;
71095;SDS011;58753;49.440;11.126;2022-07-24T01:12:54;10.87;;;6.20;;
71095;SDS011;58753;49.440;11.126;2022-07-24T01:23:39;9.45;;;5.47;;
71095;SDS011;58753;49.440;11.126;2022-07-24T01:26:08;8.10;;;5.23;;
71095;SDS011;58753;49.440;11.126;2022-07-24T01:28:34;8.60;;;5.60;;
71095;SDS011;58753;49.440;11.126;2022-07-24T01:31:00;9.13;;;5.80;;
71095;SDS011;58753;49.440;11.126;2022-07-24T01:38:36;8.73;;;5.97;;
71095;SDS011;58753;49.440;11.126;2022-07-24T01:41:02;10.23;;;5.60;;
71095;SDS011;58753;49.440;11.126;2022-07-24T01:43:27;10.23;;;5.70;;
71095;SDS011;58753;49.440;11.126;2022-07-24T01:45:52;8.00;;;5.40;;
71095;SDS011;58753;49.440;11.126;2022-07-24T01:53:08;9.98;;;6.07;;
71095;SDS011;58753;49.440;11.126;2022-07-24T01:58:59;9.98;;;5.50;;
71095;SDS011;58753;49.440;11.126;2022-07-24T02:01:27;9.77;;;6.00;;
71095;SDS011;58753;49.440;11.126;2022-07-24T02:03:54;9.23;;;6.00;;
71095;SDS011;58753;49.440;11.126;2022-07-24T02:06:19;11.05;;;5.88;;
71095;SDS011;58753;49.440;11.126;2022-07-24T02:21:41;10.00;;;6.00;;
71095;SDS011;58753;49.440;11.126;2022-07-24T02:24:07;11.07;;;5.90;;
71095;SDS011;58753;49.440;11.126;2022-07-24T02:28:58;10.10;;;6.20;;
71095;SDS011;58753;49.440;11.126;2022-07-24T02:31:23;9.43;;;5.97;;
71095;SDS011;58753;49.440;11.126;2022-07-24T02:36:46;10.60;;;6.10;;
71095;SDS011;58753;49.440;11.126;2022-07-24T02:39:12;11.13;;;6.80;;
71095;SDS011;58753;49.440;11.126;2022-07-24T02:41:37;9.40;;;5.85;;
71095;SDS011;58753;49.440;11.126;2022-07-24T02:44:03;11.23;;;6.17;;
71095;SDS011;58753;49.440;11.126;2022-07-24T02:54:03;11.80;;;6.53;;
71095;SDS011;58753;49.440;11.126;2022-07-24T02:58:53;8.33;;;5.63;;
71095;SDS011;58753;49.440;11.126;2022-07-24T03:01:19;7.93;;;5.23;;
71095;SDS011;58753;49.440;11.126;2022-07-24T03:03:44;8.13;;;5.47;;
71095;SDS011;58753;49.440;11.126;2022-07-24T03:06:09;10.00;;;6.77;;
71095;SDS011;58753;49.440;11.126;2022-07-24T03:08:35;9.27;;;5.85;;
71095;SDS011;58753;49.440;11.126;2022-07-24T03:11:00;9.57;;;5.87;;
71095;SDS011;58753;49.440;11.126;2022-07-24T03:13:26;10.00;;;6.53;;
71095;SDS011;58753;49.440;11.126;2022-07-24T03:15:51;11.07;;;6.20;;
71095;SDS011;58753;49.440;11.126;2022-07-24T03:18:17;11.27;;;6.50;;
71095;SDS011;58753;49.440;11.126;2022-07-24T03:20:42;10.93;;;5.97;;
71095;SDS011;58753;49.440;11.126;2022-07-24T03:36:39;11.37;;;6.40;;
71095;SDS011;58753;49.440;11.126;2022-07-24T03:39:04;10.73;;;6.87;;
71095;SDS011;58753;49.440;11.126;2022-07-24T03:41:30;10.95;;;6.88;;
71095;SDS011;58753;49.440;11.126;2022-07-24T03:49:25;10.50;;;6.30;;
71095;SDS011;58753;49.440;11.126;2022-07-24T03:51:51;12.27;;;6.38;;
71095;SDS011;58753;49.440;11.126;2022-07-24T03:54:16;10.37;;;6.70;;
71095;SDS011;58753;49.440;11.126;2022-07-24T03:56:42;12.13;;;6.22;;
71095;SDS011;58753;49.440;11.126;2022-07-24T03:59:07;28.07;;;6.90;;
71095;SDS011;58753;49.440;11.126;2022-07-24T04:04:38;8.38;;;5.53;;
71095;SDS011;58753;49.440;11.126;2022-07-24T04:07:03;9.90;;;5.87;;
71095;SDS011;58753;49.440;11.126;2022-07-24T04:09:28;10.07;;;6.65;;
71095;SDS011;58753;49.440;11.126;2022-07-24T04:11:54;9.33;;;6.70;;
71095;SDS011;58753;49.440;11.126;2022-07-24T04:16:44;9.88;;;6.30;;
71095;SDS011;58753;49.440;11.126;2022-07-24T04:21:45;11.65;;;6.93;;
71095;SDS011;58753;49.440;11.126;2022-07-24T04:24:11;10.53;;;6.17;;
71095;SDS011;58753;49.440;11.126;2022-07-24T04:26:36;10.40;;;5.97;;
71095;SDS011;58753;49.440;11.126;2022-07-24T04:29:02;10.70;;;6.83;;
71095;SDS011;58753;49.440;11.126;2022-07-24T04:31:27;8.93;;;5.63;;
71095;SDS011;58753;49.440;11.126;2022-07-24T04:33:53;12.77;;;6.23;;
71095;SDS011;58753;49.440;11.126;2022-07-24T04:36:25;7.87;;;5.63;;
71095;SDS011;58753;49.440;11.126;2022-07-24T04:38:51;11.35;;;6.68;;
71095;SDS011;58753;49.440;11.126;2022-07-24T04:41:16;9.50;;;6.43;;
71095;SDS011;58753;49.440;11.126;2022-07-24T04:43:42;9.38;;;5.95;;
71095;SDS011;58753;49.440;11.126;2022-07-24T04:46:08;10.60;;;6.45;;
71095;SDS011;58753;49.440;11.126;2022-07-24T04:48:34;10.50;;;6.33;;
71095;SDS011;58753;49.440;11.126;2022-07-24T04:50:59;10.80;;;6.80;;
71095;SDS011;58753;49.440;11.126;2022-07-24T04:53:24;10.03;;;6.60;;
71095;SDS011;58753;49.440;11.126;2022-07-24T04:55:50;10.57;;;6.70;;
71095;SDS011;58753;49.440;11.126;2022-07-24T04:58:15;11.70;;;7.40;;
71095;SDS011;58753;49.440;11.126;2022-07-24T05:03:12;12.13;;;7.15;;
71095;SDS011;58753;49.440;11.126;2022-07-24T05:05:38;10.93;;;7.15;;
71095;SDS011;58753;49.440;11.126;2022-07-24T05:08:03;12.13;;;7.80;;
71095;SDS011;58753;49.440;11.126;2022-07-24T05:12:54;10.68;;;7.25;;
71095;SDS011;58753;49.440;11.126;2022-07-24T05:18:49;11.57;;;7.43;;
71095;SDS011;58753;49.440;11.126;2022-07-24T05:21:14;9.57;;;6.83;;
71095;SDS011;58753;49.440;11.126;2022-07-24T05:23:40;14.27;;;7.60;;
71095;SDS011;58753;49.440;11.126;2022-07-24T05:34:03;14.33;;;8.50;;
71095;SDS011;58753;49.440;11.126;2022-07-24T05:36:29;11.97;;;7.90;;
71095;SDS011;58753;49.440;11.126;2022-07-24T05:38:54;12.67;;;7.30;;
71095;SDS011;58753;49.440;11.126;2022-07-24T05:49:02;13.13;;;8.27;;
71095;SDS011;58753;49.440;11.126;2022-07-24T05:51:27;13.60;;;7.50;;
71095;SDS011;58753;49.440;11.126;2022-07-24T05:53:53;11.43;;;8.13;;
71095;SDS011;58753;49.440;11.126;2022-07-24T05:59:48;14.93;;;8.33;;
71095;SDS011;58753;49.440;11.126;2022-07-24T06:02:13;12.50;;;7.87;;
71095;SDS011;58753;49.440;11.126;2022-07-24T06:04:39;12.17;;;8.23;;
71095;SDS011;58753;49.440;11.126;2022-07-24T06:07:07;10.18;;;7.18;;
71095;SDS011;58753;49.440;11.126;2022-07-24T06:11:59;10.50;;;7.55;;
71095;SDS011;58753;49.440;11.126;2022-07-24T06:14:24;14.03;;;8.30;;
71095;SDS011;58753;49.440;11.126;2022-07-24T06:16:50;14.70;;;8.63;;
71095;SDS011;58753;49.440;11.126;2022-07-24T06:24:05;14.00;;;7.93;;
71095;SDS011;58753;49.440;11.126;2022-07-24T06:26:31;12.02;;;7.75;;
71095;SDS011;58753;49.440;11.126;2022-07-24T06:28:56;12.97;;;7.50;;
71095;SDS011;58753;49.440;11.126;2022-07-24T06:31:21;10.30;;;7.13;;
71095;SDS011;58753;49.440;11.126;2022-07-24T06:33:47;11.33;;;8.03;;
71095;SDS011;58753;49.440;11.126;2022-07-24T06:36:12;13.30;;;7.57;;
71095;SDS011;58753;49.440;11.126;2022-07-24T06:38:38;10.63;;;7.47;;
71095;SDS011;58753;49.440;11.126;2022-07-24T06:41:03;8.87;;;6.43;;
71095;SDS011;58753;49.440;11.126;2022-07-24T06:48:26;10.32;;;7.32;;
71095;SDS011;58753;49.440;11.126;2022-07-24T06:50:51;10.68;;;7.50;;
71095;SDS011;58753;49.440;11.126;2022-07-24T06:53:17;10.77;;;7.50;;
71095;SDS011;58753;49.440;11.126;2022-07-24T06:55:42;10.88;;;7.53;;
71095;SDS011;58753;49.440;11.126;2022-07-24T06:58:07;10.23;;;6.63;;
71095;SDS011;58753;49.440;11.126;2022-07-24T07:00:33;10.77;;;6.77;;
71095;SDS011;58753;49.440;11.126;2022-07-24T07:05:24;10.10;;;7.28;;
71095;SDS011;58753;49.440;11.126;2022-07-24T07:20:28;10.98;;;7.00;;
71095;SDS011;58753;49.440;11.126;2022-07-24T07:22:54;10.55;;;7.55;;
71095;SDS011;58753;49.440;11.126;2022-07-24T07:27:44;11.00;;;7.35;;
71095;SDS011;58753;49.440;11.126;2022-07-24T07:30:14;10.83;;;6.80;;
71095;SDS011;58753;49.440;11.126;2022-07-24T07:32:39;11.55;;;7.93;;
71095;SDS011;58753;49.440;11.126;2022-07-24T07:35:05;11.57;;;7.63;;
71095;SDS011;58753;49.440;11.126;2022-07-24T07:37:32;12.55;;;8.02;;
71095;SDS011;58753;49.440;11.126;2022-07-24T07:39:57;13.00;;;7.67;;
71095;SDS011;58753;49.440;11.126;2022-07-24T08:06:29;11.00;;;6.80;;
71095;SDS011;58753;49.440;11.126;2022-07-24T08:08:55;10.67;;;6.67;;
71095;SDS011;58753;49.440;11.126;2022-07-24T08:11:21;9.50;;;7.25;;
71095;SDS011;58753;49.440;11.126;2022-07-24T08:13:46;12.70;;;8.07;;
71095;SDS011;58753;49.440;11.126;2022-07-24T08:18:43;11.10;;;7.60;;
71095;SDS011;58753;49.440;11.126;2022-07-24T08:23:33;11.07;;;6.95;;
71095;SDS011;58753;49.440;11.126;2022-07-24T08:25:59;9.88;;;7.30;;
71095;SDS011;58753;49.440;11.126;2022-07-24T08:41:30;8.25;;;6.22;;
71095;SDS011;58753;49.440;11.126;2022-07-24T08:44:00;8.10;;;6.32;;
71095;SDS011;58753;49.440;11.126;2022-07-24T08:46:28;8.37;;;5.67;;
71095;SDS011;58753;49.440;11.126;2022-07-24T08:54:49;9.45;;;5.03;;
71095;SDS011;58753;49.440;11.126;2022-07-24T08:57:15;9.17;;;4.83;;
71095;SDS011;58753;49.440;11.126;2022-07-24T09:02:05;8.70;;;5.55;;
71095;SDS011;58753;49.440;11.126;2022-07-24T09:14:15;8.73;;;4.80;;
71095;SDS011;58753;49.440;11.126;2022-07-24T09:17:03;7.38;;;4.30;;
71095;SDS011;58753;49.440;11.126;2022-07-24T09:29:13;5.50;;;3.10;;
71095;SDS011;58753;49.440;11.126;2022-07-24T09:34:39;5.50;;;3.85;;
71095;SDS011;58753;49.440;11.126;2022-07-24T09:39:31;5.80;;;3.83;;
71095;SDS011;58753;49.440;11.126;2022-07-24T09:41:59;6.70;;;3.70;;
71095;SDS011;58753;49.440;11.126;2022-07-24T09:44:26;6.85;;;4.18;;
71095;SDS011;58753;49.440;11.126;2022-07-24T09:49:41;7.78;;;4.47;;
71095;SDS011;58753;49.440;11.126;2022-07-24T09:54:46;6.50;;;4.40;;
71095;SDS011;58753;49.440;11.126;2022-07-24T09:59:45;6.35;;;4.28;;
71095;SDS011;58753;49.440;11.126;2022-07-24T10:02:28;5.72;;;4.10;;
71095;SDS011;58753;49.440;11.126;2022-07-24T10:04:55;7.75;;;4.45;;
71095;SDS011;58753;49.440;11.126;2022-07-24T10:09:48;6.68;;;4.03;;
71095;SDS011;58753;49.440;11.126;2022-07-24T10:12:17;6.77;;;3.60;;
71095;SDS011;58753;49.440;11.126;2022-07-24T10:17:10;6.60;;;4.07;;
71095;SDS011;58753;49.440;11.126;2022-07-24T10:19:44;7.70;;;4.28;;
71095;SDS011;58753;49.440;11.126;2022-07-24T10:22:16;6.05;;;4.00;;
71095;SDS011;58753;49.440;11.126;2022-07-24T10:24:52;6.25;;;4.38;;
71095;SDS011;58753;49.440;11.126;2022-07-24T10:27:31;5.53;;;4.15;;
71095;SDS011;58753;49.440;11.126;2022-07-24T10:30:03;9.00;;;4.78;;
71095;SDS011;58753;49.440;11.126;2022-07-24T10:32:30;5.10;;;3.60;;
71095;SDS011;58753;49.440;11.126;2022-07-24T10:35:08;6.15;;;4.20;;
71095;SDS011;58753;49.440;11.126;2022-07-24T10:43:18;7.10;;;4.55;;
71095;SDS011;58753;49.440;11.126;2022-07-24T10:53:26;5.72;;;3.95;;
71095;SDS011;58753;49.440;11.126;2022-07-24T10:56:20;6.68;;;4.72;;
71095;SDS011;58753;49.440;11.126;2022-07-24T10:58:59;6.43;;;4.47;;
71095;SDS011;58753;49.440;11.126;2022-07-24T11:01:50;7.07;;;4.47;;
71095;SDS011;58753;49.440;11.126;2022-07-24T11:12:02;4.53;;;3.30;;
71095;SDS011;58753;49.440;11.126;2022-07-24T11:21:43;6.87;;;4.73;;
71095;SDS011;58753;49.440;11.126;2022-07-24T11:29:10;5.38;;;4.40;;
71095;SDS011;58753;49.440;11.126;2022-07-24T11:37:13;5.53;;;4.10;;
71095;SDS011;58753;49.440;11.126;2022-07-24T11:39:40;5.72;;;3.65;;
71095;SDS011;58753;49.440;11.126;2022-07-24T11:42:07;5.88;;;4.07;;
71095;SDS011;58753;49.440;11.126;2022-07-24T11:44:35;5.57;;;4.50;;
71095;SDS011;58753;49.440;11.126;2022-07-24T11:47:06;7.05;;;4.05;;
71095;SDS011;58753;49.440;11.126;2022-07-24T11:51:56;6.15;;;4.00;;
71095;SDS011;58753;49.440;11.126;2022-07-24T11:54:23;6.03;;;4.30;;
71095;SDS011;58753;49.440;11.126;2022-07-24T11:59:25;4.35;;;3.47;;
71095;SDS011;58753;49.440;11.126;2022-07-24T12:04:26;5.15;;;3.67;;
71095;SDS011;58753;49.440;11.126;2022-07-24T12:06:52;4.87;;;3.60;;
71095;SDS011;58753;49.440;11.126;2022-07-24T12:09:17;5.40;;;3.97;;
71095;SDS011;58753;49.440;11.126;2022-07-24T12:11:43;6.57;;;3.73;;
71095;SDS011;58753;49.440;11.126;2022-07-24T12:14:15;5.33;;;3.30;;
71095;SDS011;58753;49.440;11.126;2022-07-24T12:29:42;4.80;;;3.85;;
71095;SDS011;58753;49.440;11.126;2022-07-24T12:32:12;7.20;;;4.35;;
71095;SDS011;58753;49.440;11.126;2022-07-24T12:34:41;6.88;;;4.72;;
71095;SDS011;58753;49.440;11.126;2022-07-24T12:37:17;6.90;;;4.32;;
71095;SDS011;58753;49.440;11.126;2022-07-24T12:39:50;5.03;;;4.10;;
71095;SDS011;58753;49.440;11.126;2022-07-24T12:42:18;6.13;;;4.43;;
71095;SDS011;58753;49.440;11.126;2022-07-24T12:45:05;6.87;;;4.90;;
71095;SDS011;58753;49.440;11.126;2022-07-24T12:47:34;5.63;;;4.28;;
71095;SDS011;58753;49.440;11.126;2022-07-24T12:50:20;6.72;;;4.60;;
71095;SDS011;58753;49.440;11.126;2022-07-24T12:52:49;5.95;;;4.20;;
71095;SDS011;58753;49.440;11.126;2022-07-24T12:55:19;6.83;;;4.27;;
71095;SDS011;58753;49.440;11.126;2022-07-24T13:06:00;7.15;;;4.47;;
71095;SDS011;58753;49.440;11.126;2022-07-24T13:08:26;6.43;;;4.33;;
71095;SDS011;58753;49.440;11.126;2022-07-24T13:10:51;5.23;;;4.03;;
71095;SDS011;58753;49.440;11.126;2022-07-24T13:13:17;7.43;;;3.90;;
71095;SDS011;58753;49.440;11.126;2022-07-24T13:15:42;5.60;;;4.23;;
71095;SDS011;58753;49.440;11.126;2022-07-24T13:18:07;5.93;;;4.20;;
71095;SDS011;58753;49.440;11.126;2022-07-24T13:20:33;5.82;;;4.30;;
71095;SDS011;58753;49.440;11.126;2022-07-24T13:22:59;5.07;;;3.80;;
71095;SDS011;58753;49.440;11.126;2022-07-24T13:25:24;7.30;;;5.07;;
71095;SDS011;58753;49.440;11.126;2022-07-24T13:27:49;8.67;;;4.27;;
71095;SDS011;58753;49.440;11.126;2022-07-24T13:30:15;6.20;;;4.27;;
71095;SDS011;58753;49.440;11.126;2022-07-24T13:32:40;7.30;;;4.03;;
71095;SDS011;58753;49.440;11.126;2022-07-24T13:35:14;5.90;;;4.32;;
71095;SDS011;58753;49.440;11.126;2022-07-24T13:37:39;7.70;;;4.40;;
71095;SDS011;58753;49.440;11.126;2022-07-24T13:40:06;6.40;;;4.17;;
71095;SDS011;58753;49.440;11.126;2022-07-24T13:42:32;6.20;;;3.87;;
71095;SDS011;58753;49.440;11.126;2022-07-24T13:44:59;6.43;;;4.60;;
71095;SDS011;58753;49.440;11.126;2022-07-24T13:57:04;6.00;;;4.10;;
71095;SDS011;58753;49.440;11.126;2022-07-24T13:59:30;6.20;;;4.10;;
71095;SDS011;58753;49.440;11.126;2022-07-24T14:06:46;5.97;;;3.72;;
71095;SDS011;58753;49.440;11.126;2022-07-24T14:09:15;6.03;;;4.33;;
71095;SDS011;58753;49.440;11.126;2022-07-24T14:11:40;5.85;;;3.97;;
71095;SDS011;58753;49.440;11.126;2022-07-24T14:14:06;4.72;;;3.83;;
71095;SDS011;58753;49.440;11.126;2022-07-24T14:16:32;5.40;;;4.10;;
71095;SDS011;58753;49.440;11.126;2022-07-24T14:31:03;5.63;;;4.18;;
71095;SDS011;58753;49.440;11.126;2022-07-24T14:33:28;5.50;;;4.00;;
71095;SDS011;58753;49.440;11.126;2022-07-24T14:41:38;6.13;;;3.90;;
71095;SDS011;58753;49.440;11.126;2022-07-24T14:44:03;7.43;;;3.97;;
71095;SDS011;58753;49.440;11.126;2022-07-24T14:46:29;5.53;;;3.63;;
71095;SDS011;58753;49.440;11.126;2022-07-24T14:48:54;6.03;;;4.10;;
71095;SDS011;58753;49.440;11.126;2022-07-24T14:56:39;5.97;;;4.00;;
71095;SDS011;58753;49.440;11.126;2022-07-24T15:01:30;5.60;;;4.45;;
71095;SDS011;58753;49.440;11.126;2022-07-24T15:03:55;4.53;;;3.17;;
71095;SDS011;58753;49.440;11.126;2022-07-24T15:06:21;6.27;;;3.90;;
71095;SDS011;58753;49.440;11.126;2022-07-24T15:08:46;5.40;;;3.93;;
71095;SDS011;58753;49.440;11.126;2022-07-24T15:11:12;5.38;;;3.55;;
71095;SDS011;58753;49.440;11.126;2022-07-24T15:13:38;4.53;;;3.40;;
71095;SDS011;58753;49.440;11.126;2022-07-24T15:27:39;4.93;;;3.53;;
71095;SDS011;58753;49.440;11.126;2022-07-24T15:30:05;5.87;;;3.60;;
71095;SDS011;58753;49.440;11.126;2022-07-24T15:32:31;5.40;;;3.78;;
71095;SDS011;58753;49.440;11.126;2022-07-24T15:34:56;6.10;;;3.60;;
71095;SDS011;58753;49.440;11.126;2022-07-24T15:37:24;6.43;;;4.10;;
71095;SDS011;58753;49.440;11.126;2022-07-24T15:39:50;5.32;;;3.70;;
71095;SDS011;58753;49.440;11.126;2022-07-24T15:42:15;5.83;;;3.43;;
71095;SDS011;58753;49.440;11.126;2022-07-24T15:44:40;5.90;;;3.53;;
71095;SDS011;58753;49.440;11.126;2022-07-24T15:56:39;5.75;;;3.85;;
71095;SDS011;58753;49.440;11.126;2022-07-24T15:59:05;8.23;;;7.38;;
71095;SDS011;58753;49.440;11.126;2022-07-24T16:01:31;8.40;;;5.87;;
71095;SDS011;58753;49.440;11.126;2022-07-24T16:03:57;4.80;;;4.03;;
71095;SDS011;58753;49.440;11.126;2022-07-24T16:08:47;4.63;;;3.20;;
71095;SDS011;58753;49.440;11.126;2022-07-24T16:11:13;5.10;;;3.93;;
71095;SDS011;58753;49.440;11.126;2022-07-24T16:13:38;4.77;;;3.70;;
71095;SDS011;58753;49.440;11.126;2022-07-24T16:16:04;5.00;;;3.47;;
71095;SDS011;58753;49.440;11.126;2022-07-24T16:18:29;5.60;;;3.97;;
71095;SDS011;58753;49.440;11.126;2022-07-24T16:28:12;4.63;;;3.70;;
71095;SDS011;58753;49.440;11.126;2022-07-24T16:30:37;5.13;;;3.60;;
71095;SDS011;58753;49.440;11.126;2022-07-24T16:33:03;4.50;;;3.60;;
71095;SDS011;58753;49.440;11.126;2022-07-24T16:35:28;4.95;;;3.65;;
71095;SDS011;58753;49.440;11.126;2022-07-24T16:40:51;4.97;;;3.55;;
71095;SDS011;58753;49.440;11.126;2022-07-24T16:43:17;4.80;;;3.57;;
71095;SDS011;58753;49.440;11.126;2022-07-24T16:45:43;4.68;;;3.53;;
71095;SDS011;58753;49.440;11.126;2022-07-24T16:48:08;5.47;;;3.40;;
71095;SDS011;58753;49.440;11.126;2022-07-24T16:58:40;5.53;;;3.70;;
71095;SDS011;58753;49.440;11.126;2022-07-24T17:01:08;4.73;;;3.57;;
71095;SDS011;58753;49.440;11.126;2022-07-24T17:03:35;6.40;;;3.73;;
71095;SDS011;58753;49.440;11.126;2022-07-24T17:06:01;4.75;;;3.85;;
71095;SDS011;58753;49.440;11.126;2022-07-24T17:08:26;4.70;;;3.75;;
71095;SDS011;58753;49.440;11.126;2022-07-24T17:13:17;4.35;;;3.42;;
71095;SDS011;58753;49.440;11.126;2022-07-24T17:15:44;5.05;;;3.63;;
71095;SDS011;58753;49.440;11.126;2022-07-24T17:20:36;5.57;;;3.70;;
71095;SDS011;58753;49.440;11.126;2022-07-24T17:23:04;4.83;;;3.13;;
71095;SDS011;58753;49.440;11.126;2022-07-24T17:25:31;5.40;;;3.80;;
71095;SDS011;58753;49.440;11.126;2022-07-24T17:27:58;5.20;;;3.50;;
71095;SDS011;58753;49.440;11.126;2022-07-24T17:30:25;4.90;;;3.45;;
71095;SDS011;58753;49.440;11.126;2022-07-24T17:32:51;4.53;;;3.20;;
71095;SDS011;58753;49.440;11.126;2022-07-24T17:35:17;5.03;;;3.40;;
71095;SDS011;58753;49.440;11.126;2022-07-24T17:37:43;8.50;;;4.07;;
71095;SDS011;58753;49.440;11.126;2022-07-24T17:40:15;8.03;;;3.37;;
71095;SDS011;58753;49.440;11.126;2022-07-24T17:42:41;5.85;;;3.67;;
71095;SDS011;58753;49.440;11.126;2022-07-24T17:45:07;5.60;;;3.33;;
71095;SDS011;58753;49.440;11.126;2022-07-24T17:47:33;5.13;;;3.95;;
71095;SDS011;58753;49.440;11.126;2022-07-24T17:50:00;5.25;;;3.45;;
71095;SDS011;58753;49.440;11.126;2022-07-24T17:52:25;5.53;;;3.55;;
71095;SDS011;58753;49.440;11.126;2022-07-24T17:54:51;5.43;;;3.70;;
71095;SDS011;58753;49.440;11.126;2022-07-24T17:57:16;5.07;;;3.77;;
71095;SDS011;58753;49.440;11.126;2022-07-24T18:02:07;5.03;;;3.92;;
71095;SDS011;58753;49.440;11.126;2022-07-24T18:04:32;5.90;;;3.43;;
71095;SDS011;58753;49.440;11.126;2022-07-24T18:09:24;5.53;;;3.45;;
71095;SDS011;58753;49.440;11.126;2022-07-24T18:11:50;5.38;;;4.10;;
71095;SDS011;58753;49.440;11.126;2022-07-24T18:29:02;5.78;;;3.97;;
71095;SDS011;58753;49.440;11.126;2022-07-24T18:31:28;8.43;;;3.67;;
71095;SDS011;58753;49.440;11.126;2022-07-24T18:36:18;6.18;;;4.13;;
71095;SDS011;58753;49.440;11.126;2022-07-24T18:41:41;5.82;;;4.07;;
71095;SDS011;58753;49.440;11.126;2022-07-24T18:46:32;7.20;;;4.78;;
71095;SDS011;58753;49.440;11.126;2022-07-24T18:53:48;6.30;;;4.75;;
71095;SDS011;58753;49.440;11.126;2022-07-24T18:56:16;6.75;;;4.18;;
71095;SDS011;58753;49.440;11.126;2022-07-24T18:58:42;7.27;;;4.20;;
71095;SDS011;58753;49.440;11.126;2022-07-24T19:01:09;6.30;;;3.97;;
71095;SDS011;58753;49.440;11.126;2022-07-24T19:03:34;6.63;;;4.28;;
71095;SDS011;58753;49.440;11.126;2022-07-24T19:06:00;6.43;;;4.20;;
71095;SDS011;58753;49.440;11.126;2022-07-24T19:08:25;6.80;;;4.37;;
71095;SDS011;58753;49.440;11.126;2022-07-24T19:10:51;6.47;;;4.13;;
71095;SDS011;58753;49.440;11.126;2022-07-24T19:13:16;6.47;;;3.80;;
71095;SDS011;58753;49.440;11.126;2022-07-24T19:18:40;7.57;;;4.60;;
71095;SDS011;58753;49.440;11.126;2022-07-24T19:21:05;5.68;;;4.03;;
71095;SDS011;58753;49.440;11.126;2022-07-24T19:23:31;5.80;;;3.93;;
71095;SDS011;58753;49.440;11.126;2022-07-24T19:25:56;6.73;;;4.40;;
71095;SDS011;58753;49.440;11.126;2022-07-24T19:28:22;6.30;;;4.18;;
71095;SDS011;58753;49.440;11.126;2022-07-24T19:30:48;7.90;;;4.33;;
71095;SDS011;58753;49.440;11.126;2022-07-24T19:33:13;9.05;;;5.03;;
71095;SDS011;58753;49.440;11.126;2022-07-24T19:35:39;8.43;;;4.37;;
71095;SDS011;58753;49.440;11.126;2022-07-24T19:38:04;5.73;;;4.27;;
71095;SDS011;58753;49.440;11.126;2022-07-24T19:42:55;8.45;;;5.57;;
71095;SDS011;58753;49.440;11.126;2022-07-24T19:45:21;9.57;;;5.72;;
71095;SDS011;58753;49.440;11.126;2022-07-24T20:00:15;7.18;;;4.18;;
71095;SDS011;58753;49.440;11.126;2022-07-24T20:02:40;6.63;;;3.90;;
71095;SDS011;58753;49.440;11.126;2022-07-24T20:05:05;7.53;;;4.27;;
71095;SDS011;58753;49.440;11.126;2022-07-24T20:07:31;7.17;;;4.63;;
71095;SDS011;58753;49.440;11.126;2022-07-24T20:09:58;7.17;;;5.23;;
71095;SDS011;58753;49.440;11.126;2022-07-24T20:20:41;8.73;;;4.90;;
71095;SDS011;58753;49.440;11.126;2022-07-24T20:23:06;6.47;;;4.50;;
71095;SDS011;58753;49.440;11.126;2022-07-24T20:27:58;8.43;;;5.03;;
71095;SDS011;58753;49.440;11.126;2022-07-24T20:35:39;7.40;;;5.40;;
71095;SDS011;58753;49.440;11.126;2022-07-24T20:38:04;8.40;;;5.47;;
71095;SDS011;58753;49.440;11.126;2022-07-24T20:40:29;9.32;;;5.43;;
71095;SDS011;58753;49.440;11.126;2022-07-24T20:42:55;6.53;;;4.83;;
71095;SDS011;58753;49.440;11.126;2022-07-24T20:50:40;8.73;;;5.50;;
71095;SDS011;58753;49.440;11.126;2022-07-24T20:53:05;8.13;;;5.37;;
71095;SDS011;58753;49.440;11.126;2022-07-24T20:55:31;7.70;;;4.90;;
71095;SDS011;58753;49.440;11.126;2022-07-24T20:57:56;6.63;;;4.63;;
71095;SDS011;58753;49.440;11.126;2022-07-24T21:00:22;7.20;;;4.97;;
71095;SDS011;58753;49.440;11.126;2022-07-24T21:02:47;7.47;;;4.90;;
71095;SDS011;58753;49.440;11.126;2022-07-24T21:05:12;6.97;;;4.93;;
71095;SDS011;58753;49.440;11.126;2022-07-24T21:07:38;7.83;;;5.17;;
71095;SDS011;58753;49.440;11.126;2022-07-24T21:10:03;6.83;;;4.73;;
71095;SDS011;58753;49.440;11.126;2022-07-24T21:12:30;7.22;;;5.13;;
71095;SDS011;58753;49.440;11.126;2022-07-24T21:14:56;8.80;;;5.70;;
71095;SDS011;58753;49.440;11.126;2022-07-24T21:17:21;9.68;;;5.47;;
71095;SDS011;58753;49.440;11.126;2022-07-24T21:19:47;7.57;;;5.10;;
71095;SDS011;58753;49.440;11.126;2022-07-24T21:22:12;8.85;;;5.18;;
71095;SDS011;58753;49.440;11.126;2022-07-24T21:24:37;9.77;;;5.50;;
71095;SDS011;58753;49.440;11.126;2022-07-24T21:27:03;7.70;;;5.00;;
71095;SDS011;58753;49.440;11.126;2022-07-24T21:29:28;8.63;;;5.10;;
71095;SDS011;58753;49.440;11.126;2022-07-24T21:31:54;11.25;;;5.72;;
71095;SDS011;58753;49.440;11.126;2022-07-24T21:34:20;6.43;;;4.67;;
71095;SDS011;58753;49.440;11.126;2022-07-24T21:39:42;7.67;;;4.67;;
71095;SDS011;58753;49.440;11.126;2022-07-24T21:42:07;12.03;;;5.13;;
71095;SDS011;58753;49.440;11.126;2022-07-24T21:46:58;8.77;;;6.20;;
71095;SDS011;58753;49.440;11.126;2022-07-24T21:49:23;8.07;;;5.50;;
71095;SDS011;58753;49.440;11.126;2022-07-24T21:51:48;8.43;;;5.70;;
71095;SDS011;58753;49.440;11.126;2022-07-24T21:54:16;9.57;;;6.15;;
71095;SDS011;58753;49.440;11.126;2022-07-24T21:56:41;8.03;;;5.63;;
71095;SDS011;58753;49.440;11.126;2022-07-24T21:59:07;7.03;;;5.10;;
71095;SDS011;58753;49.440;11.126;2022-07-24T22:01:32;8.15;;;5.70;;
71095;SDS011;58753;49.440;11.126;2022-07-24T22:03:58;9.70;;;5.10;;
71095;SDS011;58753;49.440;11.126;2022-07-24T22:11:39;10.77;;;6.05;;
71095;SDS011;58753;49.440;11.126;2022-07-24T22:14:04;8.80;;;5.40;;
71095;SDS011;58753;49.440;11.126;2022-07-24T22:26:39;8.38;;;5.47;;
71095;SDS011;58753;49.440;11.126;2022-07-24T22:29:04;7.95;;;5.55;;
71095;SDS011;58753;49.440;11.126;2022-07-24T22:31:30;9.07;;;5.93;;
71095;SDS011;58753;49.440;11.126;2022-07-24T22:33:56;7.27;;;5.20;;
71095;SDS011;58753;49.440;11.126;2022-07-24T22:38:47;8.40;;;6.05;;
71095;SDS011;58753;49.440;11.126;2022-07-24T22:46:03;11.00;;;6.18;;
71095;SDS011;58753;49.440;11.126;2022-07-24T22:48:32;8.53;;;5.30;;
71095;SDS011;58753;49.440;11.126;2022-07-24T22:50:58;8.47;;;5.93;;
71095;SDS011;58753;49.440;11.126;2022-07-24T22:53:24;8.40;;;5.50;;